sensor_id;sensor_type;location;lat;lon;timestamp;pressure;altitude;pressure_sealevel;temperature;humidity
71559;BME280;59382;43.852;25.952;2022-09-29T00:01:37;100165.97;;;21.72;51.44
71559;BME280;59382;43.852;25.952;2022-09-29T00:04:03;100137.31;;;21.59;51.43
71559;BME280;59382;43.852;25.952;2022-09-29T00:06:28;100148.59;;;21.58;51.26
71559;BME280;59382;43.852;25.952;2022-09-29T00:08:54;100151.03;;;21.59;51.22
71559;BME280;59382;43.852;25.952;2022-09-29T00:11:19;100151.84;;;21.60;51.07
71559;BME280;59382;43.852;25.952;2022-09-29T00:13:46;100152.44;;;21.57;51.12
71559;BME280;59382;43.852;25.952;2022-09-29T00:16:12;100144.81;;;21.54;51.01
71559;BME280;59382;43.852;25.952;2022-09-29T00:18:38;100136.19;;;21.42;51.00
71559;BME280;59382;43.852;25.952;2022-09-29T00:21:10;100148.22;;;21.46;50.84
71559;BME280;59382;43.852;25.952;2022-09-29T00:23:36;100136.78;;;21.38;50.80
71559;BME280;59382;43.852;25.952;2022-09-29T00:26:06;100144.97;;;21.44;50.93
71559;BME280;59382;43.852;25.952;2022-09-29T00:28:33;100141.25;;;21.34;50.70
71559;BME280;59382;43.852;25.952;2022-09-29T00:31:00;100147.19;;;21.42;50.90
71559;BME280;59382;43.852;25.952;2022-09-29T00:33:35;100151.34;;;21.39;50.98
71559;BME280;59382;43.852;25.952;2022-09-29T00:36:04;100154.91;;;21.40;50.80
71559;BME280;59382;43.852;25.952;2022-09-29T00:38:31;100152.75;;;21.37;50.68
71559;BME280;59382;43.852;25.952;2022-09-29T00:40:57;100137.16;;;21.32;50.70
71559;BME280;59382;43.852;25.952;2022-09-29T00:49:23;100135.59;;;21.26;50.50
71559;BME280;59382;43.852;25.952;2022-09-29T00:51:57;100127.13;;;21.22;50.46
71559;BME280;59382;43.852;25.952;2022-09-29T00:54:25;100143.53;;;21.27;50.34
71559;BME280;59382;43.852;25.952;2022-09-29T00:56:53;100126.56;;;21.25;50.32
71559;BME280;59382;43.852;25.952;2022-09-29T00:59:25;100136.34;;;21.31;50.00
71559;BME280;59382;43.852;25.952;2022-09-29T01:01:53;100128.69;;;21.28;49.98
71559;BME280;59382;43.852;25.952;2022-09-29T01:04:19;100143.94;;;21.40;50.05
71559;BME280;59382;43.852;25.952;2022-09-29T01:06:50;100141.09;;;21.45;49.84
71559;BME280;59382;43.852;25.952;2022-09-29T01:09:19;100131.81;;;21.41;49.60
71559;BME280;59382;43.852;25.952;2022-09-29T01:11:47;100129.03;;;21.46;49.85
71559;BME280;59382;43.852;25.952;2022-09-29T01:14:14;100127.06;;;21.46;49.87
71559;BME280;59382;43.852;25.952;2022-09-29T01:16:40;100143.63;;;21.60;49.73
71559;BME280;59382;43.852;25.952;2022-09-29T01:19:18;100149.66;;;21.62;49.60
71559;BME280;59382;43.852;25.952;2022-09-29T01:27:14;100134.84;;;21.58;49.13
71559;BME280;59382;43.852;25.952;2022-09-29T01:30:04;100144.75;;;21.59;49.36
71559;BME280;59382;43.852;25.952;2022-09-29T01:32:39;100141.03;;;21.50;49.45
71559;BME280;59382;43.852;25.952;2022-09-29T01:35:21;100148.09;;;21.56;49.57
71559;BME280;59382;43.852;25.952;2022-09-29T01:43:17;100151.63;;;21.56;49.53
71559;BME280;59382;43.852;25.952;2022-09-29T01:45:56;100163.97;;;21.59;49.83
71559;BME280;59382;43.852;25.952;2022-09-29T01:48:28;100141.69;;;21.42;50.15
71559;BME280;59382;43.852;25.952;2022-09-29T01:51:00;100160.25;;;21.50;50.57
71559;BME280;59382;43.852;25.952;2022-09-29T01:53:36;100144.13;;;21.43;51.20
71559;BME280;59382;43.852;25.952;2022-09-29T01:56:10;100142.13;;;21.49;51.46
71559;BME280;59382;43.852;25.952;2022-09-29T01:58:53;100131.25;;;21.44;51.66
71559;BME280;59382;43.852;25.952;2022-09-29T02:01:22;100137.25;;;21.46;51.68
71559;BME280;59382;43.852;25.952;2022-09-29T02:04:15;100141.81;;;21.50;51.95
71559;BME280;59382;43.852;25.952;2022-09-29T02:06:48;100139.09;;;21.50;51.76
71559;BME280;59382;43.852;25.952;2022-09-29T02:09:23;100139.91;;;21.51;51.83
71559;BME280;59382;43.852;25.952;2022-09-29T02:11:52;100136.44;;;21.45;52.00
71559;BME280;59382;43.852;25.952;2022-09-29T02:14:24;100138.88;;;21.47;52.05
71559;BME280;59382;43.852;25.952;2022-09-29T02:17:04;100135.59;;;21.45;52.28
71559;BME280;59382;43.852;25.952;2022-09-29T02:19:39;100140.50;;;21.48;52.30
71559;BME280;59382;43.852;25.952;2022-09-29T02:22:07;100135.41;;;21.41;52.27
71559;BME280;59382;43.852;25.952;2022-09-29T02:24:33;100138.88;;;21.47;52.27
71559;BME280;59382;43.852;25.952;2022-09-29T02:26:58;100154.22;;;21.48;52.28
71559;BME280;59382;43.852;25.952;2022-09-29T02:29:25;100139.53;;;21.38;52.58
71559;BME280;59382;43.852;25.952;2022-09-29T02:31:50;100149.41;;;21.40;52.71
71559;BME280;59382;43.852;25.952;2022-09-29T02:34:18;100143.47;;;21.32;52.93
71559;BME280;59382;43.852;25.952;2022-09-29T02:48:20;100155.03;;;21.29;53.29
71559;BME280;59382;43.852;25.952;2022-09-29T02:56:17;100155.09;;;21.24;52.94
71559;BME280;59382;43.852;25.952;2022-09-29T02:58:56;100157.84;;;21.24;52.92
71559;BME280;59382;43.852;25.952;2022-09-29T03:01:23;100158.44;;;21.21;52.91
71559;BME280;59382;43.852;25.952;2022-09-29T03:03:49;100149.81;;;21.09;53.03
71559;BME280;59382;43.852;25.952;2022-09-29T03:06:15;100154.78;;;21.07;52.83
71559;BME280;59382;43.852;25.952;2022-09-29T03:08:43;100145.06;;;20.96;53.10
71559;BME280;59382;43.852;25.952;2022-09-29T03:11:08;100148.88;;;20.95;53.07
71559;BME280;59382;43.852;25.952;2022-09-29T03:13:34;100154.38;;;20.95;53.18
71559;BME280;59382;43.852;25.952;2022-09-29T03:15:59;100156.81;;;20.97;53.18
71559;BME280;59382;43.852;25.952;2022-09-29T03:18:25;100151.09;;;20.93;53.31
71559;BME280;59382;43.852;25.952;2022-09-29T03:20:55;100142.91;;;20.88;53.46
71559;BME280;59382;43.852;25.952;2022-09-29T03:23:20;100153.56;;;20.95;53.22
71559;BME280;59382;43.852;25.952;2022-09-29T03:25:46;100145.94;;;20.87;53.40
71559;BME280;59382;43.852;25.952;2022-09-29T03:28:12;100139.72;;;20.81;53.38
71559;BME280;59382;43.852;25.952;2022-09-29T03:30:37;100150.91;;;20.85;53.44
71559;BME280;59382;43.852;25.952;2022-09-29T03:33:03;100156.47;;;20.80;53.52
71559;BME280;59382;43.852;25.952;2022-09-29T03:35:29;100148.91;;;20.67;53.63
71559;BME280;59382;43.852;25.952;2022-09-29T03:37:58;100156.53;;;20.70;53.58
71559;BME280;59382;43.852;25.952;2022-09-29T03:40:25;100155.50;;;20.66;53.51
71559;BME280;59382;43.852;25.952;2022-09-29T03:42:51;100155.69;;;20.74;53.46
71559;BME280;59382;43.852;25.952;2022-09-29T03:45:17;100137.66;;;20.68;53.33
71559;BME280;59382;43.852;25.952;2022-09-29T03:47:42;100147.44;;;20.74;53.37
71559;BME280;59382;43.852;25.952;2022-09-29T03:50:08;100146.88;;;20.77;53.25
71559;BME280;59382;43.852;25.952;2022-09-29T03:52:34;100142.25;;;20.73;53.27
71559;BME280;59382;43.852;25.952;2022-09-29T03:54:59;100153.50;;;20.71;53.30
71559;BME280;59382;43.852;25.952;2022-09-29T03:57:25;100164.84;;;20.65;53.57
71559;BME280;59382;43.852;25.952;2022-09-29T03:59:50;100157.03;;;20.53;53.75
71559;BME280;59382;43.852;25.952;2022-09-29T04:02:18;100158.56;;;20.59;53.87
71559;BME280;59382;43.852;25.952;2022-09-29T04:04:45;100147.44;;;20.51;53.84
71559;BME280;59382;43.852;25.952;2022-09-29T04:07:10;100164.88;;;20.60;53.75
71559;BME280;59382;43.852;25.952;2022-09-29T04:09:36;100161.38;;;20.54;54.05
71559;BME280;59382;43.852;25.952;2022-09-29T04:12:02;100167.38;;;20.56;54.09
71559;BME280;59382;43.852;25.952;2022-09-29T04:14:28;100170.78;;;20.48;54.18
71559;BME280;59382;43.852;25.952;2022-09-29T04:16:53;100165.63;;;20.42;54.07
71559;BME280;59382;43.852;25.952;2022-09-29T04:19:19;100173.81;;;20.47;53.96
71559;BME280;59382;43.852;25.952;2022-09-29T04:21:44;100176.84;;;20.45;54.14
71559;BME280;59382;43.852;25.952;2022-09-29T04:24:10;100172.97;;;20.46;54.16
71559;BME280;59382;43.852;25.952;2022-09-29T04:26:36;100159.34;;;20.41;54.14
71559;BME280;59382;43.852;25.952;2022-09-29T04:29:01;100168.31;;;20.47;54.00
71559;BME280;59382;43.852;25.952;2022-09-29T04:31:27;100177.41;;;20.42;54.09
71559;BME280;59382;43.852;25.952;2022-09-29T04:33:53;100172.59;;;20.29;54.11
71559;BME280;59382;43.852;25.952;2022-09-29T04:36:21;100180.28;;;20.27;54.33
71559;BME280;59382;43.852;25.952;2022-09-29T04:38:46;100180.84;;;20.24;54.04
71559;BME280;59382;43.852;25.952;2022-09-29T04:41:14;100187.38;;;20.28;54.28
71559;BME280;59382;43.852;25.952;2022-09-29T04:43:39;100196.06;;;20.40;53.98
71559;BME280;59382;43.852;25.952;2022-09-29T04:46:06;100200.38;;;20.46;53.92
71559;BME280;59382;43.852;25.952;2022-09-29T04:48:33;100192.81;;;20.38;53.80
71559;BME280;59382;43.852;25.952;2022-09-29T04:51:00;100207.00;;;20.40;53.95
71559;BME280;59382;43.852;25.952;2022-09-29T04:53:28;100218.53;;;20.37;54.04
71559;BME280;59382;43.852;25.952;2022-09-29T04:55:56;100210.88;;;20.39;54.14
71559;BME280;59382;43.852;25.952;2022-09-29T04:58:22;100216.88;;;20.41;54.25
71559;BME280;59382;43.852;25.952;2022-09-29T05:00:47;100218.75;;;20.46;53.97
71559;BME280;59382;43.852;25.952;2022-09-29T05:03:13;100208.09;;;20.44;53.83
71559;BME280;59382;43.852;25.952;2022-09-29T05:05:38;100212.44;;;20.50;54.00
71559;BME280;59382;43.852;25.952;2022-09-29T05:08:04;100231.44;;;20.65;53.71
71559;BME280;59382;43.852;25.952;2022-09-29T05:10:31;100211.25;;;20.56;53.63
71559;BME280;59382;43.852;25.952;2022-09-29T05:12:57;100221.63;;;20.59;53.61
71559;BME280;59382;43.852;25.952;2022-09-29T05:15:22;100221.25;;;20.71;53.47
71559;BME280;59382;43.852;25.952;2022-09-29T05:17:48;100225.81;;;20.80;53.30
71559;BME280;59382;43.852;25.952;2022-09-29T05:20:13;100216.66;;;20.90;53.14
71559;BME280;59382;43.852;25.952;2022-09-29T05:22:42;100211.25;;;21.08;52.57
71559;BME280;59382;43.852;25.952;2022-09-29T05:25:08;100220.31;;;21.32;52.42
71559;BME280;59382;43.852;25.952;2022-09-29T05:27:36;100218.78;;;21.64;51.79
71559;BME280;59382;43.852;25.952;2022-09-29T05:30:02;100216.66;;;21.98;51.42
71559;BME280;59382;43.852;25.952;2022-09-29T05:32:28;100231.59;;;22.29;50.74
71559;BME280;59382;43.852;25.952;2022-09-29T05:34:54;100211.25;;;22.43;50.25
71559;BME280;59382;43.852;25.952;2022-09-29T05:37:22;100222.97;;;22.49;49.94
71559;BME280;59382;43.852;25.952;2022-09-29T05:39:47;100231.38;;;22.57;49.93
71559;BME280;59382;43.852;25.952;2022-09-29T05:42:13;100223.44;;;22.56;49.87
71559;BME280;59382;43.852;25.952;2022-09-29T05:44:38;100214.09;;;22.57;49.85
71559;BME280;59382;43.852;25.952;2022-09-29T05:47:04;100212.44;;;22.56;49.74
71559;BME280;59382;43.852;25.952;2022-09-29T05:49:29;100224.63;;;22.82;49.54
71559;BME280;59382;43.852;25.952;2022-09-29T05:51:57;100229.94;;;23.19;48.99
71559;BME280;59382;43.852;25.952;2022-09-29T05:54:22;100235.56;;;23.41;48.50
71559;BME280;59382;43.852;25.952;2022-09-29T05:56:48;100227.63;;;23.53;48.48
71559;BME280;59382;43.852;25.952;2022-09-29T05:59:14;100223.91;;;23.71;48.03
71559;BME280;59382;43.852;25.952;2022-09-29T06:01:39;100224.63;;;23.63;47.96
71559;BME280;59382;43.852;25.952;2022-09-29T06:04:05;100217.63;;;23.44;48.20
71559;BME280;59382;43.852;25.952;2022-09-29T06:06:30;100232.03;;;23.27;48.51
71559;BME280;59382;43.852;25.952;2022-09-29T06:08:57;100223.28;;;22.93;48.88
71559;BME280;59382;43.852;25.952;2022-09-29T06:11:28;100227.75;;;22.75;49.32
71559;BME280;59382;43.852;25.952;2022-09-29T06:13:54;100227.31;;;22.55;49.80
71559;BME280;59382;43.852;25.952;2022-09-29T06:16:23;100216.41;;;22.31;49.99
71559;BME280;59382;43.852;25.952;2022-09-29T06:18:49;100213.66;;;22.31;50.10
71559;BME280;59382;43.852;25.952;2022-09-29T06:21:17;100226.22;;;22.37;50.42
71559;BME280;59382;43.852;25.952;2022-09-29T06:23:43;100200.47;;;22.15;50.14
71559;BME280;59382;43.852;25.952;2022-09-29T06:26:12;100223.75;;;22.36;50.34
71559;BME280;59382;43.852;25.952;2022-09-29T06:28:38;100221.13;;;22.44;50.18
71559;BME280;59382;43.852;25.952;2022-09-29T06:31:06;100221.59;;;22.51;50.12
71559;BME280;59382;43.852;25.952;2022-09-29T06:33:34;100217.06;;;22.42;50.13
71559;BME280;59382;43.852;25.952;2022-09-29T06:38:55;100208.91;;;22.37;50.40
71559;BME280;59382;43.852;25.952;2022-09-29T06:41:21;100212.78;;;22.36;50.47
71559;BME280;59382;43.852;25.952;2022-09-29T06:43:47;100218.16;;;22.41;50.44
71559;BME280;59382;43.852;25.952;2022-09-29T06:46:12;100224.63;;;22.50;50.30
71559;BME280;59382;43.852;25.952;2022-09-29T06:48:38;100212.66;;;22.59;49.95
71559;BME280;59382;43.852;25.952;2022-09-29T06:51:08;100211.06;;;22.72;49.90
71559;BME280;59382;43.852;25.952;2022-09-29T06:53:33;100218.69;;;22.88;49.78
71559;BME280;59382;43.852;25.952;2022-09-29T06:56:00;100214.97;;;23.11;49.30
71559;BME280;59382;43.852;25.952;2022-09-29T06:58:27;100221.28;;;23.39;48.97
71559;BME280;59382;43.852;25.952;2022-09-29T07:00:53;100224.28;;;23.78;48.50
71559;BME280;59382;43.852;25.952;2022-09-29T07:03:21;100225.03;;;24.19;47.80
71559;BME280;59382;43.852;25.952;2022-09-29T07:05:47;100226.38;;;24.52;47.45
71559;BME280;59382;43.852;25.952;2022-09-29T07:08:12;100243.03;;;24.91;46.39
71559;BME280;59382;43.852;25.952;2022-09-29T07:10:38;100258.59;;;25.18;45.75
71559;BME280;59382;43.852;25.952;2022-09-29T07:13:03;100248.56;;;25.31;45.75
71559;BME280;59382;43.852;25.952;2022-09-29T07:15:30;100249.94;;;25.42;45.20
71559;BME280;59382;43.852;25.952;2022-09-29T07:18:00;100248.81;;;25.43;44.99
71559;BME280;59382;43.852;25.952;2022-09-29T07:20:27;100261.53;;;25.61;44.79
71559;BME280;59382;43.852;25.952;2022-09-29T07:22:53;100267.22;;;25.73;44.54
71559;BME280;59382;43.852;25.952;2022-09-29T07:25:19;100265.28;;;25.73;44.68
71559;BME280;59382;43.852;25.952;2022-09-29T07:27:46;100262.53;;;25.82;44.32
71559;BME280;59382;43.852;25.952;2022-09-29T07:30:12;100266.78;;;25.88;44.59
71559;BME280;59382;43.852;25.952;2022-09-29T07:32:38;100256.72;;;25.92;44.06
71559;BME280;59382;43.852;25.952;2022-09-29T07:35:03;100262.59;;;25.99;44.03
71559;BME280;59382;43.852;25.952;2022-09-29T07:37:30;100252.19;;;26.04;43.98
71559;BME280;59382;43.852;25.952;2022-09-29T07:39:55;100258.84;;;26.20;43.79
71559;BME280;59382;43.852;25.952;2022-09-29T07:42:21;100266.03;;;26.30;43.52
71559;BME280;59382;43.852;25.952;2022-09-29T07:44:47;100254.97;;;26.21;43.65
71559;BME280;59382;43.852;25.952;2022-09-29T07:47:13;100255.94;;;26.17;43.60
71559;BME280;59382;43.852;25.952;2022-09-29T07:49:40;100267.84;;;26.26;43.32
71559;BME280;59382;43.852;25.952;2022-09-29T07:52:05;100277.75;;;26.27;43.19
71559;BME280;59382;43.852;25.952;2022-09-29T07:54:31;100256.09;;;26.12;43.26
71559;BME280;59382;43.852;25.952;2022-09-29T07:56:57;100277.44;;;26.20;43.24
71559;BME280;59382;43.852;25.952;2022-09-29T07:59:29;100272.69;;;26.20;43.37
71559;BME280;59382;43.852;25.952;2022-09-29T08:01:54;100272.03;;;26.23;43.19
71559;BME280;59382;43.852;25.952;2022-09-29T08:04:20;100263.59;;;26.20;43.23
71559;BME280;59382;43.852;25.952;2022-09-29T08:06:46;100262.94;;;26.23;43.22
71559;BME280;59382;43.852;25.952;2022-09-29T08:09:12;100268.31;;;26.19;43.32
71559;BME280;59382;43.852;25.952;2022-09-29T08:11:41;100272.88;;;26.07;43.18
71559;BME280;59382;43.852;25.952;2022-09-29T08:14:08;100251.00;;;25.97;43.61
71559;BME280;59382;43.852;25.952;2022-09-29T08:16:34;100244.69;;;25.96;43.46
71559;BME280;59382;43.852;25.952;2022-09-29T08:19:01;100248.25;;;25.97;43.62
71559;BME280;59382;43.852;25.952;2022-09-29T08:21:29;100243.88;;;25.96;43.66
71559;BME280;59382;43.852;25.952;2022-09-29T08:24:00;100254.94;;;25.96;43.31
71559;BME280;59382;43.852;25.952;2022-09-29T08:26:26;100244.50;;;25.84;43.71
71559;BME280;59382;43.852;25.952;2022-09-29T08:28:52;100249.88;;;25.81;43.64
71559;BME280;59382;43.852;25.952;2022-09-29T08:31:19;100255.72;;;25.71;43.79
71559;BME280;59382;43.852;25.952;2022-09-29T08:33:46;100261.88;;;25.68;44.13
71559;BME280;59382;43.852;25.952;2022-09-29T08:36:14;100269.22;;;25.72;44.06
71559;BME280;59382;43.852;25.952;2022-09-29T08:38:48;100244.66;;;25.71;44.02
71559;BME280;59382;43.852;25.952;2022-09-29T08:43:42;100259.31;;;25.97;43.54
71559;BME280;59382;43.852;25.952;2022-09-29T08:46:32;100267.00;;;26.17;43.64
71559;BME280;59382;43.852;25.952;2022-09-29T08:49:02;100248.31;;;26.14;43.34
71559;BME280;59382;43.852;25.952;2022-09-29T08:51:35;100261.16;;;26.10;43.64
71559;BME280;59382;43.852;25.952;2022-09-29T08:54:41;100272.03;;;25.98;43.65
71559;BME280;59382;43.852;25.952;2022-09-29T08:57:14;100263.53;;;25.86;44.13
71559;BME280;59382;43.852;25.952;2022-09-29T09:00:05;100282.84;;;25.77;44.09
71559;BME280;59382;43.852;25.952;2022-09-29T09:05:25;100272.31;;;25.88;44.00
71559;BME280;59382;43.852;25.952;2022-09-29T09:08:15;100270.25;;;26.10;43.46
71559;BME280;59382;43.852;25.952;2022-09-29T09:10:45;100265.88;;;26.18;43.58
71559;BME280;59382;43.852;25.952;2022-09-29T09:22:00;100263.94;;;26.10;43.63
71559;BME280;59382;43.852;25.952;2022-09-29T09:27:02;100261.31;;;26.22;43.78
71559;BME280;59382;43.852;25.952;2022-09-29T09:29:34;100265.38;;;26.24;43.29
71559;BME280;59382;43.852;25.952;2022-09-29T09:32:24;100269.28;;;26.23;43.58
71559;BME280;59382;43.852;25.952;2022-09-29T09:37:35;100258.38;;;26.27;43.53
71559;BME280;59382;43.852;25.952;2022-09-29T09:40:15;100243.56;;;26.31;43.36
71559;BME280;59382;43.852;25.952;2022-09-29T09:42:57;100251.88;;;26.40;43.29
71559;BME280;59382;43.852;25.952;2022-09-29T09:48:11;100241.44;;;26.37;43.56
71559;BME280;59382;43.852;25.952;2022-09-29T09:50:40;100232.03;;;26.38;43.43
71559;BME280;59382;43.852;25.952;2022-09-29T09:53:14;100229.91;;;26.35;43.06
71559;BME280;59382;43.852;25.952;2022-09-29T09:55:52;100257.41;;;26.40;42.84
71559;BME280;59382;43.852;25.952;2022-09-29T10:01:18;100258.38;;;26.35;42.69
71559;BME280;59382;43.852;25.952;2022-09-29T10:03:44;100263.56;;;26.37;43.05
71559;BME280;59382;43.852;25.952;2022-09-29T10:06:09;100251.53;;;26.33;42.97
71559;BME280;59382;43.852;25.952;2022-09-29T10:08:38;100250.59;;;26.29;43.04
71559;BME280;59382;43.852;25.952;2022-09-29T10:11:29;100270.75;;;26.38;43.09
71559;BME280;59382;43.852;25.952;2022-09-29T10:14:00;100274.00;;;26.40;42.79
71559;BME280;59382;43.852;25.952;2022-09-29T10:16:39;100273.53;;;26.38;42.58
71559;BME280;59382;43.852;25.952;2022-09-29T10:19:06;100276.94;;;26.43;42.67
71559;BME280;59382;43.852;25.952;2022-09-29T10:21:42;100274.34;;;26.47;42.62
71559;BME280;59382;43.852;25.952;2022-09-29T10:24:28;100277.09;;;26.47;42.32
71559;BME280;59382;43.852;25.952;2022-09-29T10:26:57;100268.16;;;26.50;42.54
71559;BME280;59382;43.852;25.952;2022-09-29T10:29:39;100266.19;;;26.59;42.43
71559;BME280;59382;43.852;25.952;2022-09-29T10:32:09;100263.56;;;26.71;42.03
71559;BME280;59382;43.852;25.952;2022-09-29T10:34:39;100263.25;;;26.81;41.97
71559;BME280;59382;43.852;25.952;2022-09-29T10:37:38;100275.44;;;26.89;41.56
71559;BME280;59382;43.852;25.952;2022-09-29T10:42:42;100265.47;;;26.96;41.69
71559;BME280;59382;43.852;25.952;2022-09-29T10:45:15;100269.22;;;27.00;41.71
71559;BME280;59382;43.852;25.952;2022-09-29T10:47:45;100255.41;;;26.92;41.56
71559;BME280;59382;43.852;25.952;2022-09-29T10:50:21;100264.00;;;26.99;41.25
71559;BME280;59382;43.852;25.952;2022-09-29T10:52:58;100260.59;;;26.93;41.51
71559;BME280;59382;43.852;25.952;2022-09-29T10:55:33;100259.78;;;26.93;41.42
71559;BME280;59382;43.852;25.952;2022-09-29T10:58:51;100257.34;;;26.91;41.75
71559;BME280;59382;43.852;25.952;2022-09-29T11:01:06;100242.06;;;26.85;41.30
71559;BME280;59382;43.852;25.952;2022-09-29T11:03:33;100250.19;;;26.90;40.91
71559;BME280;59382;43.852;25.952;2022-09-29T11:06:11;100249.66;;;26.97;40.95
71559;BME280;59382;43.852;25.952;2022-09-29T11:12:00;100239.25;;;26.94;40.78
71559;BME280;59382;43.852;25.952;2022-09-29T11:17:02;100216.19;;;26.81;40.71
71559;BME280;59382;43.852;25.952;2022-09-29T11:19:43;100221.22;;;26.79;41.02
71559;BME280;59382;43.852;25.952;2022-09-29T11:41:59;100222.91;;;26.63;41.07
71559;BME280;59382;43.852;25.952;2022-09-29T11:47:24;100230.22;;;26.67;40.69
71559;BME280;59382;43.852;25.952;2022-09-29T11:53:27;100226.47;;;26.72;40.50
71559;BME280;59382;43.852;25.952;2022-09-29T11:59:14;100217.38;;;26.63;40.58
71559;BME280;59382;43.852;25.952;2022-09-29T12:01:55;100228.44;;;26.63;40.63
71559;BME280;59382;43.852;25.952;2022-09-29T12:05:09;100223.03;;;26.66;40.33
71559;BME280;59382;43.852;25.952;2022-09-29T12:18:20;100212.41;;;26.77;40.22
71559;BME280;59382;43.852;25.952;2022-09-29T12:20:50;100230.81;;;26.81;39.88
71559;BME280;59382;43.852;25.952;2022-09-29T12:23:20;100226.75;;;26.79;40.36
71559;BME280;59382;43.852;25.952;2022-09-29T12:26:01;100221.38;;;26.74;40.09
71559;BME280;59382;43.852;25.952;2022-09-29T12:31:44;100232.28;;;26.79;40.09
71559;BME280;59382;43.852;25.952;2022-09-29T12:35:00;100226.59;;;26.75;40.00
71559;BME280;59382;43.852;25.952;2022-09-29T12:42:22;100227.13;;;26.69;39.81
71559;BME280;59382;43.852;25.952;2022-09-29T12:55:35;100228.09;;;26.56;39.34
71559;BME280;59382;43.852;25.952;2022-09-29T12:58:10;100228.09;;;26.56;39.59
71559;BME280;59382;43.852;25.952;2022-09-29T13:00:42;100217.81;;;26.56;39.69
71559;BME280;59382;43.852;25.952;2022-09-29T13:03:42;100237.19;;;26.65;39.59
71559;BME280;59382;43.852;25.952;2022-09-29T13:14:07;100239.31;;;26.68;39.71
71559;BME280;59382;43.852;25.952;2022-09-29T13:27:53;100218.00;;;26.60;40.36
71559;BME280;59382;43.852;25.952;2022-09-29T13:30:27;100223.53;;;26.60;40.26
71559;BME280;59382;43.852;25.952;2022-09-29T13:33:09;100216.38;;;26.59;40.45
71559;BME280;59382;43.852;25.952;2022-09-29T13:35:44;100224.50;;;26.64;39.75
71559;BME280;59382;43.852;25.952;2022-09-29T13:38:18;100230.53;;;26.66;40.09
71559;BME280;59382;43.852;25.952;2022-09-29T13:41:16;100231.81;;;26.68;39.92
71559;BME280;59382;43.852;25.952;2022-09-29T13:54:21;100232.16;;;26.67;40.05
71559;BME280;59382;43.852;25.952;2022-09-29T13:59:44;100226.78;;;26.62;39.81
71559;BME280;59382;43.852;25.952;2022-09-29T14:04:55;100249.59;;;26.59;39.58
71559;BME280;59382;43.852;25.952;2022-09-29T14:10:41;100246.00;;;26.50;39.67
71559;BME280;59382;43.852;25.952;2022-09-29T14:19:08;100229.41;;;26.33;39.96
71559;BME280;59382;43.852;25.952;2022-09-29T14:30:20;100236.09;;;26.40;40.49
71559;BME280;59382;43.852;25.952;2022-09-29T14:35:35;100236.56;;;26.34;40.02
71559;BME280;59382;43.852;25.952;2022-09-29T14:38:38;100249.41;;;26.38;40.26
71559;BME280;59382;43.852;25.952;2022-09-29T14:43:48;100233.00;;;26.25;40.10
71559;BME280;59382;43.852;25.952;2022-09-29T14:55:05;100260.66;;;26.25;39.62
71559;BME280;59382;43.852;25.952;2022-09-29T15:00:23;100262.59;;;26.16;39.58
71559;BME280;59382;43.852;25.952;2022-09-29T15:02:54;100255.97;;;26.08;39.56
71559;BME280;59382;43.852;25.952;2022-09-29T15:05:30;100274.16;;;26.18;39.84
71559;BME280;59382;43.852;25.952;2022-09-29T15:07:59;100280.84;;;26.17;39.86
71559;BME280;59382;43.852;25.952;2022-09-29T15:10:38;100245.00;;;25.95;40.11
71559;BME280;59382;43.852;25.952;2022-09-29T15:13:25;100271.22;;;26.06;39.96
71559;BME280;59382;43.852;25.952;2022-09-29T15:16:19;100281.81;;;26.04;39.79
71559;BME280;59382;43.852;25.952;2022-09-29T15:26:33;100285.97;;;25.93;40.33
71559;BME280;59382;43.852;25.952;2022-09-29T15:29:00;100281.09;;;25.90;40.26
71559;BME280;59382;43.852;25.952;2022-09-29T15:31:31;100298.66;;;25.85;40.26
71559;BME280;59382;43.852;25.952;2022-09-29T15:34:02;100284.13;;;25.71;40.23
71559;BME280;59382;43.852;25.952;2022-09-29T15:36:34;100298.00;;;25.80;40.43
71559;BME280;59382;43.852;25.952;2022-09-29T15:39:05;100300.91;;;25.75;40.68
71559;BME280;59382;43.852;25.952;2022-09-29T15:41:33;100299.94;;;25.71;40.42
71559;BME280;59382;43.852;25.952;2022-09-29T15:44:01;100307.41;;;25.70;40.78
71559;BME280;59382;43.852;25.952;2022-09-29T15:46:47;100291.09;;;25.52;40.57
71559;BME280;59382;43.852;25.952;2022-09-29T15:49:15;100311.91;;;25.58;40.67
71559;BME280;59382;43.852;25.952;2022-09-29T15:52:06;100320.84;;;25.55;40.63
71559;BME280;59382;43.852;25.952;2022-09-29T15:54:38;100315.13;;;25.51;40.78
71559;BME280;59382;43.852;25.952;2022-09-29T15:57:06;100309.59;;;25.43;41.18
71559;BME280;59382;43.852;25.952;2022-09-29T15:59:54;100313.78;;;25.40;41.07
71559;BME280;59382;43.852;25.952;2022-09-29T16:02:35;100305.75;;;25.30;40.83
71559;BME280;59382;43.852;25.952;2022-09-29T16:05:09;100313.06;;;25.26;41.14
71559;BME280;59382;43.852;25.952;2022-09-29T16:07:46;100312.34;;;25.21;41.22
71559;BME280;59382;43.852;25.952;2022-09-29T16:10:20;100317.56;;;25.22;41.14
71559;BME280;59382;43.852;25.952;2022-09-29T16:12:57;100307.09;;;25.11;41.56
71559;BME280;59382;43.852;25.952;2022-09-29T16:15:29;100323.19;;;25.09;41.31
71559;BME280;59382;43.852;25.952;2022-09-29T16:17:56;100330.47;;;25.04;41.49
71559;BME280;59382;43.852;25.952;2022-09-29T16:20:29;100333.06;;;25.01;41.54
71559;BME280;59382;43.852;25.952;2022-09-29T16:22:56;100328.09;;;24.89;41.82
71559;BME280;59382;43.852;25.952;2022-09-29T16:25:30;100329.75;;;24.90;41.80